createdAt,value
2022-09-16T00:00:56.411Z,99620.31
2022-09-16T00:03:25.923Z,99629.44
2022-09-16T00:05:55.304Z,99623.59
2022-09-16T00:08:23.064Z,99627.19
2022-09-16T00:10:50.931Z,99626.44
2022-09-16T00:13:19.002Z,99627.19
2022-09-16T00:15:51.055Z,99626.44
2022-09-16T00:18:19.605Z,99629.03
2022-09-16T00:20:51.292Z,99624.50
2022-09-16T00:23:19.890Z,99625.66
2022-09-16T00:25:55.759Z,99620.47
2022-09-16T00:28:24.443Z,99624.66
2022-09-16T00:30:51.779Z,99629.84
2022-09-16T00:33:20.210Z,99630.47
2022-09-16T00:35:47.854Z,99632.06
2022-09-16T00:38:15.175Z,99631.00
2022-09-16T00:40:48.991Z,99628.53
2022-09-16T00:43:19.055Z,99632.34
2022-09-16T00:45:55.584Z,99626.31
2022-09-16T00:48:26.474Z,99622.97
2022-09-16T00:51:15.204Z,99625.75
2022-09-16T00:53:50.090Z,99625.22
2022-09-16T00:56:23.680Z,99635.81
2022-09-16T00:59:02.218Z,99637.31
2022-09-16T01:01:31.937Z,99636.78
2022-09-16T01:04:14.530Z,99636.97
2022-09-16T01:06:41.581Z,99641.97
2022-09-16T01:09:08.799Z,99635.78
2022-09-16T01:11:36.057Z,99638.75
2022-09-16T01:14:22.893Z,99639.53
2022-09-16T01:17:09.293Z,99642.25
2022-09-16T01:20:08.278Z,99639.22
2022-09-16T01:22:56.090Z,99641.25
2022-09-16T01:25:54.087Z,99641.34
2022-09-16T01:29:07.601Z,99646.84
2022-09-16T01:31:54.409Z,99638.69
2022-09-16T01:34:46.118Z,99642.16
2022-09-16T01:37:24.151Z,99649.25
2022-09-16T01:40:17.091Z,99638.00
2022-09-16T01:43:25.504Z,99641.63
2022-09-16T01:46:07.523Z,99636.63
2022-09-16T01:48:56.457Z,99636.75
2022-09-16T01:51:42.501Z,99628.88
2022-09-16T01:54:29.867Z,99630.91
2022-09-16T01:57:05.638Z,99641.19
2022-09-16T01:59:54.698Z,99644.13
2022-09-16T02:02:34.575Z,99637.59
2022-09-16T02:05:08.527Z,99646.34
2022-09-16T02:07:43.646Z,99641.81
2022-09-16T02:10:25.953Z,99636.34
2022-09-16T02:12:58.182Z,99638.25
2022-09-16T02:15:26.542Z,99633.88
2022-09-16T02:18:04.821Z,99636.88
2022-09-16T02:20:38.388Z,99633.34
2022-09-16T02:23:34.767Z,99629.91
2022-09-16T02:26:05.711Z,99631.97
2022-09-16T02:28:40.929Z,99635.13
2022-09-16T02:31:10.390Z,99640.53
2022-09-16T02:33:46.481Z,99637.09
2022-09-16T02:36:20.253Z,99643.44
2022-09-16T02:39:04.585Z,99638.84
2022-09-16T02:41:31.753Z,99642.09
2022-09-16T02:43:59.320Z,99644.31
2022-09-16T02:46:27.120Z,99648.34
2022-09-16T02:49:16.088Z,99645.81
2022-09-16T02:52:14.554Z,99647.13
2022-09-16T02:55:01.738Z,99651.69
2022-09-16T02:57:29.764Z,99647.50
2022-09-16T02:59:57.277Z,99638.03
2022-09-16T03:02:24.515Z,99653.28
2022-09-16T03:04:54.698Z,99652.84
2022-09-16T03:07:21.835Z,99658.59
2022-09-16T03:09:49.990Z,99653.09
2022-09-16T03:12:47.339Z,99650.91
2022-09-16T03:15:48.971Z,99646.44
2022-09-16T03:18:29.303Z,99650.44
2022-09-16T03:21:32.512Z,99651.44
2022-09-16T03:24:28.057Z,99652.06
2022-09-16T03:27:13.576Z,99646.44
2022-09-16T03:30:11.482Z,99649.78
2022-09-16T03:32:40.257Z,99652.84
2022-09-16T03:35:29.814Z,99646.75
2022-09-16T03:38:00.495Z,99648.41
2022-09-16T03:40:30.089Z,99650.22
2022-09-16T03:42:58.433Z,99643.22
2022-09-16T03:45:25.857Z,99649.69
2022-09-16T03:47:54.035Z,99649.13
2022-09-16T03:50:22.202Z,99647.41
2022-09-16T03:52:49.211Z,99651.50
2022-09-16T03:55:17.356Z,99657.66
2022-09-16T03:57:44.407Z,99648.38
2022-09-16T04:00:12.674Z,99652.91
2022-09-16T04:02:42.998Z,99649.19
2022-09-16T04:05:10.248Z,99660.31
2022-09-16T04:07:37.519Z,99654.41
2022-09-16T04:10:08.994Z,99661.00
2022-09-16T04:12:36.117Z,99661.25
2022-09-16T04:15:05.565Z,99654.00
2022-09-16T04:17:33.371Z,99662.28
2022-09-16T04:20:00.988Z,99652.34
2022-09-16T04:22:32.054Z,99652.06
2022-09-16T04:24:59.502Z,99649.31
2022-09-16T04:27:26.808Z,99651.00
2022-09-16T04:29:53.901Z,99653.66
2022-09-16T04:32:23.678Z,99663.16
2022-09-16T04:34:50.705Z,99662.41
2022-09-16T04:37:17.731Z,99656.97
2022-09-16T04:39:53.375Z,99659.75
2022-09-16T04:42:20.539Z,99654.75
2022-09-16T04:44:49.825Z,99661.13
2022-09-16T04:47:16.924Z,99654.97
2022-09-16T04:49:43.946Z,99655.94
2022-09-16T04:52:11.150Z,99662.97
2022-09-16T04:54:38.186Z,99660.53
2022-09-16T04:57:05.231Z,99666.25
2022-09-16T04:59:35.180Z,99669.28
2022-09-16T05:02:02.236Z,99666.97
2022-09-16T05:04:29.343Z,99666.34
2022-09-16T05:06:56.543Z,99671.53
2022-09-16T05:09:26.091Z,99671.00
2022-09-16T05:11:53.778Z,99661.94
2022-09-16T05:14:21.122Z,99667.63
2022-09-16T05:16:48.099Z,99666.53
2022-09-16T05:19:16.190Z,99678.78
2022-09-16T05:21:43.773Z,99672.34
2022-09-16T05:24:13.635Z,99667.94
2022-09-16T05:26:45.210Z,99677.66
2022-09-16T05:29:16.135Z,99671.75
2022-09-16T05:31:47.471Z,99675.00
2022-09-16T05:34:23.396Z,99686.75
2022-09-16T05:36:54.235Z,99677.06
2022-09-16T05:39:24.076Z,99673.63
2022-09-16T05:41:57.834Z,99675.34
2022-09-16T05:44:29.177Z,99674.00
2022-09-16T05:46:56.586Z,99669.91
2022-09-16T05:49:24.168Z,99675.13
2022-09-16T05:51:57.146Z,99680.63
2022-09-16T05:54:25.360Z,99681.97
2022-09-16T05:56:52.729Z,99673.81
2022-09-16T05:59:24.805Z,99671.25
2022-09-16T06:01:51.881Z,99679.44
2022-09-16T06:04:19.042Z,99674.66
2022-09-16T06:06:49.609Z,99675.13
2022-09-16T06:09:21.776Z,99681.38
2022-09-16T06:11:55.398Z,99674.03
2022-09-16T06:14:25.174Z,99682.03
2022-09-16T06:16:52.252Z,99677.63
2022-09-16T06:19:20.492Z,99673.66
2022-09-16T06:21:50.313Z,99673.69
2022-09-16T06:24:19.848Z,99678.56
2022-09-16T06:26:48.583Z,99669.19
2022-09-16T06:29:19.250Z,99671.41
2022-09-16T06:31:48.418Z,99673.13
2022-09-16T06:34:18.786Z,99672.31
2022-09-16T06:36:46.297Z,99675.13
2022-09-16T06:39:15.921Z,99663.84
2022-09-16T06:41:43.742Z,99668.84
2022-09-16T06:44:11.134Z,99673.72
2022-09-16T06:46:40.395Z,99670.00
2022-09-16T06:49:07.649Z,99672.03
2022-09-16T06:51:37.205Z,99664.47
2022-09-16T06:54:07.296Z,99665.22
2022-09-16T06:56:37.766Z,99662.53
2022-09-16T06:59:06.568Z,99673.50
2022-09-16T07:01:36.199Z,99674.94
2022-09-16T07:04:08.399Z,99676.34
2022-09-16T07:09:24.517Z,99670.84
2022-09-16T07:11:51.520Z,99669.28
2022-09-16T07:14:18.742Z,99676.91
2022-09-16T07:16:45.825Z,99676.34
2022-09-16T07:19:12.878Z,99672.50
2022-09-16T07:21:41.404Z,99682.22
2022-09-16T07:24:14.065Z,99679.56
2022-09-16T07:26:45.163Z,99676.72
2022-09-16T07:29:15.839Z,99672.75
2022-09-16T07:31:43.205Z,99674.59
2022-09-16T07:34:12.272Z,99676.00
2022-09-16T07:36:47.416Z,99677.53
2022-09-16T07:39:19.412Z,99681.91
2022-09-16T07:41:49.259Z,99684.66
2022-09-16T07:44:19.106Z,99664.91
2022-09-16T07:46:51.245Z,99669.34
2022-09-16T07:49:19.201Z,99670.47
2022-09-16T07:51:46.207Z,99674.44
2022-09-16T07:54:16.360Z,99676.25
2022-09-16T07:56:48.505Z,99680.38
2022-09-16T07:59:19.612Z,99678.69
2022-09-16T08:01:50.554Z,99675.09
2022-09-16T08:04:20.203Z,99671.28
2022-09-16T08:06:47.340Z,99673.53
2022-09-16T08:12:05.151Z,99675.59
2022-09-16T08:14:33.298Z,99690.00
2022-09-16T08:17:02.071Z,99693.59
2022-09-16T08:19:30.132Z,99685.91
2022-09-16T08:21:57.312Z,99674.75
2022-09-16T08:24:24.402Z,99687.06
2022-09-16T08:29:25.824Z,99672.34
2022-09-16T08:31:55.478Z,99672.38
2022-09-16T08:34:22.647Z,99680.84
2022-09-16T08:36:49.649Z,99663.44
2022-09-16T08:39:16.646Z,99668.22
2022-09-16T08:42:25.458Z,99679.75
2022-09-16T08:45:15.207Z,99667.31
2022-09-16T08:48:10.490Z,99659.00
2022-09-16T08:50:45.114Z,99665.03
2022-09-16T08:53:58.568Z,99666.19
2022-09-16T08:56:30.504Z,99671.88
2022-09-16T08:59:01.508Z,99664.63
2022-09-16T09:01:36.774Z,99664.59
2022-09-16T09:04:04.820Z,99668.47
2022-09-16T09:06:56.340Z,99673.66
2022-09-16T09:09:53.795Z,99658.69
2022-09-16T09:13:03.685Z,99662.50
2022-09-16T09:16:15.076Z,99664.88
2022-09-16T09:19:39.103Z,99665.22
2022-09-16T09:22:56.947Z,99665.44
2022-09-16T09:25:58.618Z,99648.78
2022-09-16T09:28:46.215Z,99674.25
2022-09-16T09:31:31.538Z,99661.91
2022-09-16T09:34:41.752Z,99653.88
2022-09-16T09:37:51.303Z,99663.53
2022-09-16T09:40:48.219Z,99646.78
2022-09-16T09:43:17.111Z,99643.22
2022-09-16T09:46:13.057Z,99657.56
2022-09-16T09:49:24.930Z,99648.31
2022-09-16T09:52:08.200Z,99641.38
2022-09-16T09:54:37.872Z,99656.84
2022-09-16T09:57:32.069Z,99657.84
2022-09-16T10:00:11.829Z,99652.13
2022-09-16T10:02:46.236Z,99660.72
2022-09-16T10:05:31.327Z,99661.44
2022-09-16T10:08:30.282Z,99644.47
2022-09-16T10:11:03.727Z,99645.44
2022-09-16T10:13:31.476Z,99648.66
2022-09-16T10:16:14.872Z,99650.50
2022-09-16T10:18:42.440Z,99650.34
2022-09-16T10:21:16.699Z,99647.66
2022-09-16T10:23:56.582Z,99666.16
2022-09-16T10:26:27.645Z,99658.38
2022-09-16T10:29:03.143Z,99658.03
2022-09-16T10:31:37.816Z,99668.88
2022-09-16T10:34:31.835Z,99670.41
2022-09-16T10:37:06.215Z,99655.72
2022-09-16T10:39:34.223Z,99665.78
2022-09-16T10:42:03.270Z,99695.44
2022-09-16T10:44:36.485Z,99665.56
2022-09-16T10:47:26.638Z,99679.22
2022-09-16T10:50:06.834Z,99654.19
2022-09-16T10:52:46.212Z,99653.44
2022-09-16T10:55:38.809Z,99674.97
2022-09-16T10:58:16.691Z,99672.56
2022-09-16T11:01:07.860Z,99663.91
2022-09-16T11:04:00.627Z,99672.00
2022-09-16T11:07:02.001Z,99660.44
2022-09-16T11:09:56.639Z,99665.56
2022-09-16T11:12:56.854Z,99657.84
2022-09-16T11:16:05.388Z,99662.59
2022-09-16T11:18:50.770Z,99666.44
2022-09-16T11:22:03.906Z,99668.56
2022-09-16T11:24:56.577Z,99669.59
2022-09-16T11:27:57.096Z,99682.19
2022-09-16T11:30:25.578Z,99664.44
2022-09-16T11:33:36.826Z,99652.31
2022-09-16T11:36:24.656Z,99651.03
2022-09-16T11:39:41.571Z,99647.63
2022-09-16T11:42:43.466Z,99655.44
2022-09-16T11:45:43.135Z,99642.31
2022-09-16T11:48:38.444Z,99630.56
2022-09-16T11:51:38.364Z,99629.91
2022-09-16T11:57:04.913Z,99640.81
2022-09-16T11:59:50.631Z,99651.91
2022-09-16T12:02:25.534Z,99650.81
2022-09-16T12:05:13.799Z,99642.97
2022-09-16T12:07:50.715Z,99635.16
2022-09-16T12:10:47.591Z,99639.53
2022-09-16T12:13:39.076Z,99646.00
2022-09-16T12:16:13.830Z,99637.53
2022-09-16T12:18:51.677Z,99631.84
2022-09-16T12:21:47.275Z,99630.97
2022-09-16T12:24:55.856Z,99631.09
2022-09-16T12:27:37.308Z,99617.47
2022-09-16T12:30:20.740Z,99608.88
2022-09-16T12:33:41.569Z,99617.44
2022-09-16T12:36:14.381Z,99628.25
2022-09-16T12:38:41.766Z,99610.25
2022-09-16T12:41:57.571Z,99615.88
2022-09-16T12:44:58.093Z,99615.63
2022-09-16T12:48:17.784Z,99609.94
2022-09-16T12:51:12.566Z,99616.41
2022-09-16T12:54:06.579Z,99602.16
2022-09-16T12:57:12.646Z,99603.81
2022-09-16T13:00:07.078Z,99598.47
2022-09-16T13:02:46.549Z,99588.25
2022-09-16T13:05:34.010Z,99595.47
2022-09-16T13:08:07.925Z,99586.63
2022-09-16T13:10:55.024Z,99573.25
2022-09-16T13:13:52.825Z,99577.03
2022-09-16T13:16:36.361Z,99578.81
2022-09-16T13:19:44.760Z,99579.69
2022-09-16T13:22:29.523Z,99579.59
2022-09-16T13:25:20.141Z,99577.53
2022-09-16T13:28:01.887Z,99568.81
2022-09-16T13:30:31.952Z,99568.47
2022-09-16T13:33:29.277Z,99577.38
2022-09-16T13:36:26.091Z,99560.44
2022-09-16T13:39:02.059Z,99562.75
2022-09-16T13:41:47.483Z,99564.84
2022-09-16T13:44:40.033Z,99560.19
2022-09-16T13:47:30.615Z,99575.28
2022-09-16T13:50:13.142Z,99554.28
2022-09-16T13:52:40.593Z,99562.75
2022-09-16T13:55:24.940Z,99562.53
2022-09-16T13:58:26.459Z,99563.66
2022-09-16T14:01:36.943Z,99566.44
2022-09-16T14:04:37.464Z,99557.69
2022-09-16T14:08:11.902Z,99560.44
2022-09-16T14:11:16.682Z,99562.41
2022-09-16T14:14:15.652Z,99560.13
2022-09-16T14:16:53.075Z,99552.03
2022-09-16T14:19:37.315Z,99556.19
2022-09-16T14:22:16.402Z,99561.03
2022-09-16T14:24:45.498Z,99571.31
2022-09-16T14:27:26.542Z,99575.34
2022-09-16T14:30:02.303Z,99562.97
2022-09-16T14:32:35.918Z,99594.38
2022-09-16T14:35:11.312Z,99582.84
2022-09-16T14:37:39.955Z,99577.78
2022-09-16T14:40:14.347Z,99582.19
2022-09-16T14:43:03.452Z,99574.00
2022-09-16T14:45:32.703Z,99570.25
2022-09-16T14:48:05.437Z,99568.97
2022-09-16T14:50:38.792Z,99578.66
2022-09-16T14:53:26.846Z,99576.97
2022-09-16T14:56:00.784Z,99586.53
2022-09-16T14:58:31.200Z,99577.56
2022-09-16T15:01:16.107Z,99589.59
2022-09-16T15:03:48.091Z,99593.22
2022-09-16T15:06:27.370Z,99586.56
2022-09-16T15:09:02.631Z,99592.59
2022-09-16T15:11:47.653Z,99592.06
2022-09-16T15:14:16.586Z,99589.03
2022-09-16T15:16:53.346Z,99595.59
2022-09-16T15:19:28.659Z,99593.13
2022-09-16T15:21:59.341Z,99603.16
2022-09-16T15:24:40.505Z,99574.88
2022-09-16T15:27:07.859Z,99575.72
2022-09-16T15:29:49.452Z,99578.66
2022-09-16T15:32:23.465Z,99588.72
2022-09-16T15:35:11.798Z,99591.03
2022-09-16T15:37:40.909Z,99572.09
2022-09-16T15:40:32.778Z,99574.91
2022-09-16T15:43:18.643Z,99581.75
2022-09-16T15:46:03.132Z,99580.13
2022-09-16T15:48:43.087Z,99586.34
2022-09-16T15:51:34.003Z,99586.31
2022-09-16T15:54:19.520Z,99593.66
2022-09-16T15:57:23.023Z,99593.84
2022-09-16T16:00:13.191Z,99591.97
2022-09-16T16:02:56.650Z,99588.78
2022-09-16T16:05:31.247Z,99600.34
2022-09-16T16:08:08.928Z,99585.53
2022-09-16T16:10:39.140Z,99588.31
2022-09-16T16:13:06.193Z,99587.72
2022-09-16T16:15:40.005Z,99582.09
2022-09-16T16:18:10.678Z,99581.81
2022-09-16T16:20:39.931Z,99584.50
2022-09-16T16:23:07.181Z,99580.69
2022-09-16T16:25:34.238Z,99575.91
2022-09-16T16:28:04.413Z,99581.03
2022-09-16T16:30:31.482Z,99579.44
2022-09-16T16:33:00.547Z,99579.94
2022-09-16T16:35:32.036Z,99587.47
2022-09-16T16:38:01.547Z,99589.38
2022-09-16T16:40:28.570Z,99583.47
2022-09-16T16:42:55.564Z,99586.16
2022-09-16T16:45:22.862Z,99592.34
2022-09-16T16:47:53.281Z,99588.88
2022-09-16T16:50:23.281Z,99590.72
2022-09-16T16:52:53.173Z,99597.97
2022-09-16T16:55:20.293Z,99590.72
2022-09-16T16:57:48.315Z,99588.56
2022-09-16T17:00:16.438Z,99591.47
2022-09-16T17:02:44.015Z,99584.50
2022-09-16T17:05:11.402Z,99591.47
2022-09-16T17:07:38.500Z,99592.28
2022-09-16T17:10:06.275Z,99595.25
2022-09-16T17:12:33.380Z,99590.31
2022-09-16T17:15:00.816Z,99586.59
2022-09-16T17:17:31.624Z,99592.97
2022-09-16T17:20:01.755Z,99593.34
2022-09-16T17:22:28.795Z,99594.66
2022-09-16T17:24:55.829Z,99586.53
2022-09-16T17:27:24.777Z,99591.09
2022-09-16T17:29:51.785Z,99589.69
2022-09-16T17:32:19.135Z,99586.53
2022-09-16T17:34:46.151Z,99583.66
2022-09-16T17:37:15.236Z,99595.69
2022-09-16T17:39:42.558Z,99597.88
2022-09-16T17:42:09.523Z,99595.25
2022-09-16T17:44:36.706Z,99591.50
2022-09-16T17:47:03.796Z,99597.16
2022-09-16T17:49:31.192Z,99589.28
2022-09-16T17:51:59.008Z,99586.34
2022-09-16T17:54:26.031Z,99594.84
2022-09-16T17:56:53.112Z,99590.94
2022-09-16T17:59:20.502Z,99592.06
2022-09-16T18:01:47.724Z,99586.13
2022-09-16T18:04:17.733Z,99591.47
2022-09-16T18:06:46.888Z,99592.84
2022-09-16T18:09:16.270Z,99598.75
2022-09-16T18:11:43.446Z,99594.66
2022-09-16T18:14:13.311Z,99590.38
2022-09-16T18:16:41.419Z,99592.53
2022-09-16T18:19:09.335Z,99604.34
2022-09-16T18:21:38.145Z,99597.59
2022-09-16T18:24:11.342Z,99592.44
2022-09-16T18:26:40.762Z,99590.84
2022-09-16T18:29:10.412Z,99597.59
2022-09-16T18:31:48.149Z,99586.59
2022-09-16T18:34:18.682Z,99590.22
2022-09-16T18:36:45.791Z,99590.00
2022-09-16T18:39:16.618Z,99579.91
2022-09-16T18:41:45.994Z,99583.72
2022-09-16T18:44:14.665Z,99577.44
2022-09-16T18:46:44.456Z,99578.00
2022-09-16T18:49:14.281Z,99576.56
2022-09-16T18:51:50.479Z,99573.69
2022-09-16T18:54:29.063Z,99579.16
2022-09-16T18:57:01.314Z,99571.31
2022-09-16T18:59:31.288Z,99571.19
2022-09-16T19:02:01.502Z,99575.06
2022-09-16T19:04:37.192Z,99575.19
2022-09-16T19:07:08.248Z,99576.84
2022-09-16T19:09:40.237Z,99576.91
2022-09-16T19:12:13.319Z,99582.53
2022-09-16T19:14:41.059Z,99576.13
2022-09-16T19:17:08.331Z,99578.28
2022-09-16T19:19:35.521Z,99573.59
2022-09-16T19:22:05.858Z,99580.16
2022-09-16T19:24:34.141Z,99581.19
2022-09-16T19:27:03.489Z,99581.03
2022-09-16T19:29:32.581Z,99582.56
2022-09-16T19:31:59.738Z,99578.56
2022-09-16T19:34:26.908Z,99585.66
2022-09-16T19:36:56.471Z,99585.22
2022-09-16T19:39:24.051Z,99582.78
2022-09-16T19:41:51.050Z,99574.50
2022-09-16T19:44:19.027Z,99574.06
2022-09-16T19:46:49.239Z,99573.31
2022-09-16T19:49:22.929Z,99578.88
2022-09-16T19:51:52.848Z,99577.81
2022-09-16T19:54:20.534Z,99581.97
2022-09-16T19:56:50.682Z,99576.31
2022-09-16T19:59:19.303Z,99569.56
2022-09-16T20:01:49.436Z,99579.56
2022-09-16T20:04:20.000Z,99570.50
2022-09-16T20:06:47.702Z,99573.41
2022-09-16T20:09:14.986Z,99574.13
2022-09-16T20:11:45.018Z,99565.31
2022-09-16T20:14:16.894Z,99578.16
2022-09-16T20:16:43.977Z,99571.31
2022-09-16T20:19:14.424Z,99578.88
2022-09-16T20:21:42.416Z,99576.75
2022-09-16T20:24:18.436Z,99591.34
2022-09-16T20:26:47.647Z,99578.81
2022-09-16T20:29:17.263Z,99588.25
2022-09-16T20:31:45.432Z,99584.72
2022-09-16T20:34:16.448Z,99583.91
2022-09-16T20:36:45.572Z,99582.22
2022-09-16T20:39:14.363Z,99590.47
2022-09-16T20:41:42.645Z,99586.66
2022-09-16T20:44:15.714Z,99589.75
2022-09-16T20:46:43.118Z,99584.34
2022-09-16T20:49:15.986Z,99583.47
2022-09-16T20:51:43.443Z,99590.09
2022-09-16T20:54:18.917Z,99588.63
2022-09-16T20:56:48.322Z,99593.34
2022-09-16T20:59:20.324Z,99589.28
2022-09-16T21:01:48.633Z,99594.06
2022-09-16T21:04:19.758Z,99601.50
2022-09-16T21:06:50.068Z,99597.25
2022-09-16T21:09:19.317Z,99594.34
2022-09-16T21:11:47.128Z,99598.47
2022-09-16T21:14:18.094Z,99603.31
2022-09-16T21:16:51.670Z,99603.97
2022-09-16T21:19:19.086Z,99608.13
2022-09-16T21:21:49.371Z,99603.69
2022-09-16T21:24:17.247Z,99606.34
2022-09-16T21:26:45.452Z,99600.19
2022-09-16T21:29:17.611Z,99607.97
2022-09-16T21:31:48.710Z,99605.63
2022-09-16T21:34:21.091Z,99602.53
2022-09-16T21:36:51.297Z,99608.66
2022-09-16T21:39:20.427Z,99600.44
2022-09-16T21:41:48.689Z,99604.25
2022-09-16T21:44:16.655Z,99602.22
2022-09-16T21:46:46.826Z,99594.53
2022-09-16T21:49:25.355Z,99599.72
2022-09-16T21:51:55.555Z,99604.81
2022-09-16T21:54:23.543Z,99596.50
2022-09-16T21:56:52.070Z,99591.81
2022-09-16T21:59:20.277Z,99603.44
2022-09-16T22:01:50.058Z,99606.91
2022-09-16T22:04:21.518Z,99604.00
2022-09-16T22:06:50.381Z,99603.94
2022-09-16T22:09:17.863Z,99601.59
2022-09-16T22:11:47.501Z,99594.13
2022-09-16T22:14:15.905Z,99594.47
2022-09-16T22:16:45.361Z,99594.22
2022-09-16T22:19:18.970Z,99597.84
2022-09-16T22:21:49.795Z,99589.84
2022-09-16T22:24:22.566Z,99589.63
2022-09-16T22:26:55.274Z,99594.38
2022-09-16T22:29:25.350Z,99592.19
2022-09-16T22:31:55.037Z,99588.84
2022-09-16T22:34:24.397Z,99583.19
2022-09-16T22:36:51.587Z,99594.66
2022-09-16T22:39:20.015Z,99590.72
2022-09-16T22:41:52.253Z,99578.94
2022-09-16T22:44:21.618Z,99588.25
2022-09-16T22:46:51.207Z,99575.72
2022-09-16T22:49:18.323Z,99573.47
2022-09-16T22:51:45.465Z,99568.34
2022-09-16T22:54:14.235Z,99582.53
2022-09-16T22:56:46.518Z,99579.25
2022-09-16T22:59:19.235Z,99568.69
2022-09-16T23:01:47.097Z,99572.03
2022-09-16T23:04:14.849Z,99568.44
2022-09-16T23:06:43.347Z,99564.00
2022-09-16T23:09:15.806Z,99560.06
2022-09-16T23:11:45.589Z,99557.41
2022-09-16T23:14:20.856Z,99548.19
2022-09-16T23:16:48.183Z,99556.19
2022-09-16T23:19:15.293Z,99550.63
2022-09-16T23:21:42.690Z,99554.88
2022-09-16T23:24:21.289Z,99551.47
2022-09-16T23:26:49.192Z,99550.81
2022-09-16T23:29:18.242Z,99551.06
2022-09-16T23:31:45.731Z,99539.69
2022-09-16T23:34:24.059Z,99539.22
2022-09-16T23:36:53.574Z,99552.47
2022-09-16T23:39:20.731Z,99548.16
2022-09-16T23:41:48.876Z,99540.91
2022-09-16T23:44:19.228Z,99550.25
2022-09-16T23:46:46.609Z,99547.38
2022-09-16T23:49:16.965Z,99545.31
2022-09-16T23:51:44.127Z,99545.81
2022-09-16T23:54:11.152Z,99549.25
2022-09-16T23:56:38.159Z,99543.09
2022-09-16T23:59:05.180Z,99546.81
